Time;durP1;ratioP1;P1;durP2;ratioP2;P2;SDS_P1;SDS_P2;PMS_P1;PMS_P2;Temp;Humidity;BMP_temperature;BMP_pressure;BME280_temperature;BME280_humidity;BME280_pressure;Samples;Min_cycle;Max_cycle;Signal;HPM_P1;HPM_P2
2020/12/01 00:01:08;;;;;;;0.00;0.00;;;14.30;83.30;;;;;;4231742;28;20055;-39
2020/12/01 00:03:29;;;;;;;0.00;0.00;;;14.30;83.40;;;;;;4231328;28;20124;-39
2020/12/01 00:05:53;;;;;;;0.08;0.08;;;14.30;83.50;;;;;;4230965;28;20494;-40
2020/12/01 00:08:14;;;;;;;0.30;0.30;;;14.30;83.70;;;;;;4231085;28;20135;-39
2020/12/01 00:10:35;;;;;;;0.00;0.00;;;14.30;83.80;;;;;;4230680;28;20060;-39
2020/12/01 00:12:56;;;;;;;0.10;0.10;;;14.20;83.90;;;;;;4231413;28;20083;-40
2020/12/01 00:15:20;;;;;;;0.00;0.00;;;14.20;84.10;;;;;;4230903;28;20126;-39
2020/12/01 00:17:41;;;;;;;0.05;0.05;;;14.30;84.00;;;;;;4230883;28;20047;-39
2020/12/01 00:20:03;;;;;;;0.13;0.13;;;14.40;83.50;;;;;;4230868;28;20496;-39
2020/12/01 00:22:24;;;;;;;0.00;0.00;;;14.50;83.20;;;;;;4230951;28;20128;-40
2020/12/01 00:24:45;;;;;;;0.00;0.00;;;14.50;82.80;;;;;;4231054;28;20132;-39
2020/12/01 00:27:06;;;;;;;0.20;0.20;;;14.60;82.70;;;;;;4230449;28;20127;-40
2020/12/01 00:29:27;;;;;;;0.00;0.00;;;14.60;82.60;;;;;;4230470;28;20056;-39
2020/12/01 00:31:48;;;;;;;0.00;0.00;;;14.60;82.50;;;;;;4230614;28;20140;-39
2020/12/01 00:34:10;;;;;;;0.65;0.65;;;14.60;82.50;;;;;;4230596;28;20494;-40
2020/12/01 00:36:31;;;;;;;0.30;0.30;;;14.70;82.40;;;;;;4213741;28;20062;-39
2020/12/01 00:38:55;;;;;;;0.00;0.00;;;14.80;82.00;;;;;;4214202;28;20518;-40
2020/12/01 00:41:16;;;;;;;0.00;0.00;;;14.90;81.50;;;;;;4230835;28;20051;-40
2020/12/01 00:43:37;;;;;;;0.75;0.75;;;14.90;81.30;;;;;;4230962;28;20082;-39
2020/12/01 00:45:57;;;;;;;2.50;1.35;;;14.90;81.30;;;;;;4230673;28;20077;-39
2020/12/01 00:48:19;;;;;;;0.13;0.13;;;14.90;81.30;;;;;;4214964;28;20056;-40
2020/12/01 00:50:40;;;;;;;0.00;0.00;;;14.80;81.40;;;;;;4230244;28;20502;-40
2020/12/01 00:53:02;;;;;;;0.25;0.25;;;14.80;81.60;;;;;;4229974;28;20047;-40
2020/12/01 00:55:26;;;;;;;0.00;0.00;;;14.70;81.80;;;;;;4214729;28;20477;-39
2020/12/01 00:57:49;;;;;;;0.10;0.10;;;14.70;82.10;;;;;;4215342;28;20047;-40
2020/12/01 01:00:15;;;;;;;0.00;0.00;;;14.70;82.40;;;;;;4215384;28;20052;-40
2020/12/01 01:03:08;;;;;;;0.00;0.00;;;14.60;82.40;;;;;;4227671;28;20055;-39
2020/12/01 01:05:29;;;;;;;0.03;0.03;;;14.60;82.80;;;;;;4230305;28;20048;-39
2020/12/01 01:07:54;;;;;;;0.00;0.00;;;14.60;83.00;;;;;;4230732;28;20074;-39
2020/12/01 01:10:18;;;;;;;0.10;0.10;;;14.50;83.20;;;;;;4230334;28;20056;-40
2020/12/01 01:12:39;;;;;;;0.30;0.30;;;14.50;83.40;;;;;;4230358;28;20112;-39
2020/12/01 01:15:02;;;;;;;0.00;0.00;;;14.40;83.50;;;;;;4229723;28;20074;-40
2020/12/01 01:17:23;;;;;;;0.00;0.00;;;14.40;83.80;;;;;;4230252;28;20044;-39
2020/12/01 01:19:44;;;;;;;0.13;0.13;;;14.40;84.00;;;;;;4230421;28;20051;-39
2020/12/01 01:22:05;;;;;;;0.00;0.00;;;14.30;84.10;;;;;;4230002;28;20044;-40
2020/12/01 01:24:27;;;;;;;0.00;0.00;;;14.30;84.40;;;;;;4229620;28;20069;-40
2020/12/01 01:26:50;;;;;;;1.08;1.05;;;14.40;84.50;;;;;;4230208;28;20052;-39
2020/12/01 01:29:11;;;;;;;0.00;0.00;;;14.60;83.50;;;;;;4229452;28;20056;-41
2020/12/01 01:31:32;;;;;;;0.00;0.00;;;14.80;82.50;;;;;;4229675;28;20048;-39
2020/12/01 01:33:53;;;;;;;0.00;0.00;;;14.90;81.90;;;;;;4229071;28;20517;-39
2020/12/01 01:36:14;;;;;;;;;;;14.90;81.60;;;;;;4229943;28;20055;-40
2020/12/01 01:38:35;;;;;;;0.00;0.00;;;14.90;81.40;;;;;;4229269;28;20019;-39
2020/12/01 01:40:57;;;;;;;0.00;0.00;;;14.90;81.40;;;;;;4229656;28;20551;-40
2020/12/01 01:43:18;;;;;;;0.22;0.22;;;14.90;81.50;;;;;;4229475;28;20055;-40
2020/12/01 01:45:41;;;;;;;0.00;0.00;;;14.90;81.70;;;;;;4229195;28;20097;-40
2020/12/01 01:48:03;;;;;;;0.00;0.00;;;14.90;81.90;;;;;;4229533;28;20300;-39
2020/12/01 01:50:25;;;;;;;0.00;0.00;;;14.80;82.20;;;;;;4229983;28;20101;-41
2020/12/01 01:52:50;;;;;;;0.00;0.00;;;14.80;82.50;;;;;;4229377;28;20050;-41
2020/12/01 01:55:14;;;;;;;0.13;0.13;;;14.70;82.70;;;;;;4227139;28;20047;-39
2020/12/01 01:57:36;;;;;;;0.00;0.00;;;14.70;82.90;;;;;;4230084;28;20101;-40
2020/12/01 02:00:00;;;;;;;0.00;0.00;;;14.70;82.90;;;;;;4229835;28;20051;-40
2020/12/01 02:02:21;;;;;;;0.00;0.00;;;14.70;83.00;;;;;;4229392;28;20059;-40
2020/12/01 02:04:45;;;;;;;0.00;0.00;;;14.70;83.10;;;;;;4213824;28;20711;-42
2020/12/01 02:07:06;;;;;;;0.00;0.00;;;14.70;83.20;;;;;;4229186;28;20077;-40
2020/12/01 02:09:31;;;;;;;1.15;0.60;;;14.60;83.20;;;;;;4228950;28;20130;-40
2020/12/01 02:11:58;;;;;;;0.00;0.00;;;14.60;83.50;;;;;;4229606;28;20059;-40
2020/12/01 02:14:24;;;;;;;0.03;0.03;;;14.70;83.20;;;;;;4229212;28;20055;-39
2020/12/01 02:16:48;;;;;;;0.00;0.00;;;14.80;82.50;;;;;;4212265;28;20426;-39
2020/12/01 02:19:14;;;;;;;0.00;0.00;;;14.90;82.10;;;;;;4212246;28;20052;-39
2020/12/01 02:21:39;;;;;;;0.00;0.00;;;15.00;81.80;;;;;;4217262;28;20047;-39
2020/12/01 02:24:02;;;;;;;0.00;0.00;;;15.00;81.60;;;;;;4229096;28;20071;-39
2020/12/01 02:26:25;;;;;;;0.85;0.82;;;15.00;81.60;;;;;;4229517;28;20109;-40
2020/12/01 02:28:46;;;;;;;0.00;0.00;;;15.00;81.60;;;;;;4226655;28;20796;-39
2020/12/01 02:31:07;;;;;;;2.33;1.30;;;15.00;81.60;;;;;;4229551;28;20084;-40
2020/12/01 02:33:28;;;;;;;5.18;2.65;;;15.00;81.60;;;;;;4229287;28;20046;-41
2020/12/01 02:35:48;;;;;;;0.00;0.00;;;15.00;81.90;;;;;;4229136;28;20127;-42
2020/12/01 02:38:09;;;;;;;0.00;0.00;;;14.90;82.10;;;;;;4228884;28;20293;-40
2020/12/01 02:40:30;;;;;;;0.00;0.00;;;14.90;82.50;;;;;;4228685;28;20783;-40
2020/12/01 02:42:53;;;;;;;0.00;0.00;;;14.90;82.60;;;;;;4228688;28;20043;-39
2020/12/01 02:45:14;;;;;;;0.00;0.00;;;14.90;82.60;;;;;;4229430;28;20155;-39
2020/12/01 02:47:35;;;;;;;0.00;0.00;;;14.90;82.60;;;;;;4229002;28;20101;-41
2020/12/01 02:49:57;;;;;;;0.00;0.00;;;14.90;82.60;;;;;;4230948;28;20051;-39
2020/12/01 02:52:20;;;;;;;0.00;0.00;;;14.80;82.80;;;;;;4231523;28;20047;-40
2020/12/01 02:54:41;;;;;;;0.00;0.00;;;14.70;83.00;;;;;;4232129;28;20134;-40
2020/12/01 02:57:03;;;;;;;0.08;0.08;;;14.70;83.30;;;;;;4232754;28;20043;-39
2020/12/01 02:59:25;;;;;;;0.00;0.00;;;14.70;83.40;;;;;;4232216;28;20079;-40
2020/12/01 03:01:46;;;;;;;0.10;0.10;;;14.80;83.30;;;;;;4232021;28;20048;-40
2020/12/01 03:04:10;;;;;;;0.00;0.00;;;14.80;83.10;;;;;;4215155;28;20056;-40
2020/12/01 03:06:35;;;;;;;0.35;0.28;;;14.90;82.80;;;;;;4229767;28;20513;-40
2020/12/01 03:08:56;;;;;;;0.00;0.00;;;15.00;82.30;;;;;;4231792;28;20051;-40
2020/12/01 03:11:17;;;;;;;0.00;0.00;;;15.30;81.20;;;;;;4215402;28;20062;-40
2020/12/01 03:13:39;;;;;;;0.00;0.00;;;15.50;80.30;;;;;;4215075;28;20048;-40
2020/12/01 03:16:04;;;;;;;0.00;0.00;;;15.50;79.70;;;;;;4215301;28;20502;-40
2020/12/01 03:18:28;;;;;;;0.15;0.15;;;15.60;79.40;;;;;;4214959;28;20044;-40
2020/12/01 03:20:50;;;;;;;0.00;0.00;;;15.60;79.30;;;;;;4230000;28;20048;-40
2020/12/01 03:23:12;;;;;;;0.00;0.00;;;15.50;79.40;;;;;;4219326;28;20058;-40
2020/12/01 03:25:35;;;;;;;0.00;0.00;;;15.60;79.70;;;;;;4229559;28;20066;-40
2020/12/01 03:27:56;;;;;;;0.00;0.00;;;15.40;79.90;;;;;;4232065;28;20688;-40
2020/12/01 03:30:18;;;;;;;0.00;0.00;;;15.40;80.40;;;;;;4231396;28;20056;-40
2020/12/01 03:32:40;;;;;;;0.00;0.00;;;15.30;80.70;;;;;;4231302;28;20052;-41
2020/12/01 03:35:01;;;;;;;0.00;0.00;;;15.20;81.10;;;;;;4231607;28;20052;-40
2020/12/01 03:37:22;;;;;;;0.00;0.00;;;15.30;81.30;;;;;;4231890;28;20058;-40
2020/12/01 03:39:43;;;;;;;0.00;0.00;;;15.30;81.10;;;;;;4231768;28;20044;-40
2020/12/01 03:42:04;;;;;;;0.00;0.00;;;15.30;80.80;;;;;;4231609;28;20133;-40
2020/12/01 03:44:29;;;;;;;0.00;0.00;;;15.30;80.80;;;;;;4231221;28;20077;-41
2020/12/01 03:46:50;;;;;;;0.00;0.00;;;15.30;80.90;;;;;;4231398;28;20771;-40
2020/12/01 03:49:11;;;;;;;0.00;0.00;;;15.30;81.10;;;;;;4231138;28;20055;-40
2020/12/01 03:51:32;;;;;;;0.00;0.00;;;15.20;81.30;;;;;;4230967;28;20120;-41
2020/12/01 03:53:53;;;;;;;0.00;0.00;;;15.20;81.60;;;;;;4231219;28;20422;-41
2020/12/01 03:56:15;;;;;;;0.00;0.00;;;15.10;82.00;;;;;;4231310;28;20048;-41
2020/12/01 03:58:36;;;;;;;0.00;0.00;;;15.20;82.10;;;;;;4231439;28;20050;-41
2020/12/01 04:00:57;;;;;;;0.47;0.47;;;15.40;81.40;;;;;;4230747;28;20051;-41
2020/12/01 04:03:18;;;;;;;0.00;0.00;;;15.50;80.50;;;;;;4231193;28;20075;-40
2020/12/01 04:05:40;;;;;;;0.00;0.00;;;15.60;80.10;;;;;;4231355;28;20051;-40
2020/12/01 04:08:01;;;;;;;0.05;0.05;;;15.60;79.80;;;;;;4231104;28;20054;-40
2020/12/01 04:10:25;;;;;;;0.00;0.00;;;15.60;79.80;;;;;;4230985;28;20130;-40
2020/12/01 04:12:45;;;;;;;0.00;0.00;;;15.60;79.90;;;;;;4231003;28;20077;-40
2020/12/01 04:15:08;;;;;;;0.00;0.00;;;15.50;80.20;;;;;;4231383;28;20505;-40
2020/12/01 04:17:29;;;;;;;0.05;0.05;;;15.50;80.50;;;;;;4230860;28;20581;-40
2020/12/01 04:19:50;;;;;;;0.08;0.08;;;15.40;80.80;;;;;;4230960;28;20129;-40
2020/12/01 04:22:13;;;;;;;0.28;0.28;;;15.30;81.10;;;;;;4230440;28;20055;-41
2020/12/01 04:24:34;;;;;;;0.00;0.00;;;15.20;81.50;;;;;;4230517;28;20043;-40
2020/12/01 04:26:54;;;;;;;0.00;0.00;;;15.20;82.10;;;;;;4231042;28;20047;-40
2020/12/01 04:29:15;;;;;;;0.00;0.00;;;15.10;82.40;;;;;;4230696;28;20071;-40
2020/12/01 04:31:35;;;;;;;0.00;0.00;;;15.00;82.70;;;;;;4230540;28;20060;-40
2020/12/01 04:33:56;;;;;;;0.00;0.00;;;14.90;83.00;;;;;;4230620;28;20426;-40
2020/12/01 04:36:17;;;;;;;0.00;0.00;;;14.90;83.40;;;;;;4230791;28;20044;-40
2020/12/01 04:38:38;;;;;;;0.10;0.10;;;14.90;83.70;;;;;;4230802;28;20052;-40
2020/12/01 04:41:04;;;;;;;0.00;0.00;;;14.90;84.40;;;;;;4230423;28;20095;-41
2020/12/01 04:43:31;;;;;;;0.00;0.00;;;15.00;83.30;;;;;;4230696;28;20058;-40
2020/12/01 04:45:52;;;;;;;0.00;0.00;;;15.10;82.90;;;;;;4230421;28;20055;-41
2020/12/01 04:48:35;;;;;;;0.00;0.00;;;15.30;82.30;;;;;;4230491;28;20143;-40
2020/12/01 04:51:01;;;;;;;0.00;0.00;;;15.50;81.90;;;;;;4230337;28;20529;-39
2020/12/01 04:54:06;;;;;;;0.00;0.00;;;15.70;80.20;;;;;;4230535;28;20051;-40
2020/12/01 04:57:03;;;;;;;0.52;0.52;;;15.80;79.70;;;;;;4213783;28;20055;-40
2020/12/01 04:59:41;;;;;;;0.00;0.00;;;15.80;79.60;;;;;;4213300;28;20052;-40
2020/12/01 05:02:34;;;;;;;0.00;0.00;;;15.70;79.60;;;;;;4229639;28;20052;-40
2020/12/01 05:05:15;;;;;;;0.30;0.30;;;15.70;80.10;;;;;;4230449;28;20573;-40
2020/12/01 05:07:46;;;;;;;0.00;0.00;;;15.50;80.50;;;;;;4230125;28;20055;-40
2020/12/01 05:10:13;;;;;;;0.00;0.00;;;15.50;80.90;;;;;;4229623;28;20514;-40
2020/12/01 05:12:37;;;;;;;0.00;0.00;;;15.40;81.40;;;;;;4229501;28;20079;-39
2020/12/01 05:15:04;;;;;;;0.00;0.00;;;15.20;81.80;;;;;;4229786;28;20064;-39
2020/12/01 05:17:55;;;;;;;0.00;0.00;;;15.20;82.10;;;;;;4229947;28;20051;-40
2020/12/01 05:20:16;;;;;;;0.00;0.00;;;15.10;82.60;;;;;;4229945;28;20058;-39
2020/12/01 05:22:38;;;;;;;0.00;0.00;;;15.00;83.00;;;;;;4230392;28;20104;-40
2020/12/01 05:25:01;;;;;;;0.00;0.00;;;14.90;83.40;;;;;;4229976;28;20059;-39
2020/12/01 05:27:26;;;;;;;0.15;0.15;;;14.90;83.80;;;;;;4229764;28;20503;-39
2020/12/01 05:29:56;;;;;;;0.00;0.00;;;14.90;84.00;;;;;;4229604;28;20109;-40
2020/12/01 05:32:25;;;;;;;0.17;0.17;;;14.90;83.50;;;;;;4229074;28;20052;-40
2020/12/01 05:34:45;;;;;;;0.20;0.20;;;15.00;83.00;;;;;;4229942;28;20047;-39
2020/12/01 05:37:06;;;;;;;0.00;0.00;;;15.20;82.50;;;;;;4230029;28;20063;-39
2020/12/01 05:39:34;;;;;;;0.00;0.00;;;15.30;81.40;;;;;;4229314;28;20056;-39
2020/12/01 05:42:03;;;;;;;0.00;0.00;;;15.50;80.50;;;;;;4229786;28;20067;-39
2020/12/01 05:44:28;;;;;;;0.00;0.00;;;15.60;80.00;;;;;;4229836;28;20055;-39
2020/12/01 05:46:55;;;;;;;0.00;0.00;;;15.60;79.90;;;;;;4229396;28;20081;-39
2020/12/01 05:49:34;;;;;;;0.00;0.00;;;15.60;79.80;;;;;;4229318;28;20471;-40
2020/12/01 05:52:03;;;;;;;2.08;1.40;;;15.50;80.00;;;;;;4229601;28;20497;-39
2020/12/01 05:54:37;;;;;;;0.00;0.00;;;15.40;80.10;;;;;;4229063;28;20062;-41
2020/12/01 05:56:59;;;;;;;0.00;0.00;;;15.40;80.50;;;;;;4229814;28;20055;-40
2020/12/01 05:59:22;;;;;;;0.00;0.00;;;15.30;80.80;;;;;;4229437;28;20058;-39
2020/12/01 06:01:47;;;;;;;0.00;0.00;;;15.20;81.10;;;;;;4228938;28;20779;-39
2020/12/01 06:04:11;;;;;;;0.00;0.00;;;15.10;81.30;;;;;;4228979;28;20051;-40
2020/12/01 06:06:57;;;;;;;0.00;0.00;;;15.00;81.70;;;;;;4229212;28;20047;-40
2020/12/01 06:09:40;;;;;;;0.00;0.00;;;15.00;82.20;;;;;;4228921;28;20055;-39
2020/12/01 06:12:07;;;;;;;0.00;0.00;;;15.00;82.00;;;;;;4214070;28;20056;-39
2020/12/01 06:14:36;;;;;;;0.00;0.00;;;15.20;81.50;;;;;;4229216;28;20062;-39
2020/12/01 06:17:04;;;;;;;0.00;0.00;;;15.20;81.30;;;;;;4228854;28;20048;-39
2020/12/01 06:19:33;;;;;;;0.10;0.10;;;15.20;81.10;;;;;;4229008;28;20048;-41
2020/12/01 06:22:22;;;;;;;0.00;0.00;;;15.20;81.20;;;;;;4229145;28;20055;-40
2020/12/01 06:25:21;;;;;;;0.00;0.00;;;15.10;82.20;;;;;;4229004;28;20052;-39
2020/12/01 06:28:08;;;;;;;0.00;0.00;;;15.00;81.70;;;;;;4205466;28;20138;-40
2020/12/01 06:31:01;;;;;;;0.15;0.15;;;15.10;81.40;;;;;;4228720;28;20066;-39
2020/12/01 06:33:52;;;;;;;0.00;0.00;;;15.20;81.10;;;;;;4228278;28;20096;-39
2020/12/01 06:36:59;;;;;;;0.00;0.00;;;15.20;80.90;;;;;;4228373;28;20405;-40
2020/12/01 06:39:33;;;;;;;0.00;0.00;;;15.20;81.00;;;;;;4228629;28;20055;-40
2020/12/01 06:42:00;;;;;;;0.00;0.00;;;15.20;82.00;;;;;;4228832;28;20075;-39
2020/12/01 06:44:26;;;;;;;0.00;0.00;;;15.30;81.80;;;;;;4228895;28;20055;-39
2020/12/01 06:46:49;;;;;;;0.00;0.00;;;15.40;81.30;;;;;;4229264;28;20055;-40
2020/12/01 06:49:12;;;;;;;0.00;0.00;;;15.40;80.90;;;;;;4228843;28;20056;-40
2020/12/01 06:51:33;;;;;;;0.00;0.00;;;15.40;80.80;;;;;;4228774;28;20086;-40
2020/12/01 06:54:06;;;;;;;0.00;0.00;;;15.40;80.80;;;;;;4228588;28;20047;-40
2020/12/01 06:56:27;;;;;;;0.00;0.00;;;15.40;80.60;;;;;;4229257;28;20055;-40
2020/12/01 06:58:50;;;;;;;0.00;0.00;;;15.40;80.50;;;;;;4228989;28;20048;-40
2020/12/01 07:01:29;;;;;;;0.00;0.00;;;15.40;80.50;;;;;;4228672;28;20052;-40
2020/12/01 07:04:18;;;;;;;0.00;0.00;;;15.40;80.50;;;;;;4228132;28;20044;-40
2020/12/01 07:06:44;;;;;;;0.00;0.00;;;15.40;80.80;;;;;;4225583;28;20040;-40
2020/12/01 07:09:07;;;;;;;0.00;0.00;;;15.40;80.80;;;;;;4228611;28;20051;-39
2020/12/01 07:11:30;;;;;;;0.00;0.00;;;15.50;80.50;;;;;;4213110;28;20431;-40
2020/12/01 07:13:59;;;;;;;0.00;0.00;;;15.40;80.40;;;;;;4228595;28;20502;-40
2020/12/01 07:16:28;;;;;;;0.00;0.00;;;15.50;80.10;;;;;;4228355;28;20513;-40
2020/12/01 07:18:53;;;;;;;5.07;0.90;;;15.60;79.60;;;;;;4228644;28;20047;-40
2020/12/01 07:21:24;;;;;;;0.00;0.00;;;15.70;81.80;;;;;;4229259;28;20056;-40
2020/12/01 07:23:52;;;;;;;7.25;1.42;;;15.70;82.30;;;;;;4227955;28;20040;-40
2020/12/01 07:26:26;;;;;;;0.00;0.00;;;15.60;83.00;;;;;;4228050;28;20055;-41
2020/12/01 07:29:10;;;;;;;0.00;0.00;;;15.60;83.10;;;;;;4228883;28;20060;-40
2020/12/01 07:31:33;;;;;;;0.00;0.00;;;15.50;83.40;;;;;;4228541;28;20510;-40
2020/12/01 07:34:00;;;;;;;5.47;1.75;;;15.40;83.40;;;;;;4228190;28;20036;-41
2020/12/01 07:36:35;;;;;;;0.00;0.00;;;15.30;83.50;;;;;;4225700;28;20417;-40
2020/12/01 07:39:10;;;;;;;0.00;0.00;;;15.30;83.40;;;;;;4231602;28;20100;-40
2020/12/01 07:41:44;;;;;;;0.05;0.05;;;15.40;82.90;;;;;;4232106;28;20463;-39
2020/12/01 07:44:09;;;;;;;0.00;0.00;;;15.40;82.50;;;;;;4231499;28;20058;-39
2020/12/01 07:46:34;;;;;;;0.00;0.00;;;15.40;82.40;;;;;;4231052;28;20055;-39
2020/12/01 07:48:59;;;;;;;0.00;0.00;;;15.40;82.50;;;;;;4231401;28;20051;-42
2020/12/01 07:51:20;;;;;;;0.00;0.00;;;15.30;82.80;;;;;;4230695;28;20051;-40
2020/12/01 07:53:42;;;;;;;0.20;0.20;;;15.20;83.00;;;;;;4222148;28;20055;-40
2020/12/01 07:56:07;;;;;;;0.17;0.17;;;15.20;83.40;;;;;;4230576;28;20055;-39
2020/12/01 07:58:30;;;;;;;0.00;0.00;;;15.10;83.80;;;;;;4220361;28;20504;-44
2020/12/01 08:00:55;;;;;;;0.85;0.82;;;15.10;84.10;;;;;;4231611;28;20059;-40
2020/12/01 08:03:20;;;;;;;0.00;0.00;;;15.10;84.10;;;;;;4231921;28;20052;-42
2020/12/01 08:05:42;;;;;;;0.00;0.00;;;15.10;84.40;;;;;;4230961;28;20561;-41
2020/12/01 08:08:04;;;;;;;0.00;0.00;;;15.00;84.60;;;;;;4229639;28;20069;-40
2020/12/01 08:10:26;;;;;;;;;;;15.00;84.80;;;;;;4225240;28;20059;-41
2020/12/01 08:12:54;;;;;;;0.00;0.00;;;14.90;85.20;;;;;;4231193;28;20394;-40
2020/12/01 08:15:17;;;;;;;0.00;0.00;;;14.80;85.70;;;;;;4231027;28;20391;-41
2020/12/01 08:17:39;;;;;;;0.00;0.00;;;14.80;86.00;;;;;;4229525;28;20500;-41
2020/12/01 08:20:02;;;;;;;0.00;0.00;;;14.70;86.60;;;;;;4228640;28;20581;-40
2020/12/01 08:22:29;;;;;;;0.20;0.20;;;14.60;86.70;;;;;;4230283;28;20124;-40
2020/12/01 08:24:56;;;;;;;0.13;0.13;;;14.60;87.20;;;;;;4230625;28;20082;-40
2020/12/01 08:27:22;;;;;;;0.20;0.20;;;14.50;87.40;;;;;;4230806;28;20055;-41
2020/12/01 08:29:45;;;;;;;0.00;0.00;;;14.50;87.70;;;;;;4230573;28;20425;-41
2020/12/01 08:32:12;;;;;;;0.00;0.00;;;14.50;87.60;;;;;;4230391;28;20056;-41
2020/12/01 08:34:44;;;;;;;0.00;0.00;;;14.60;87.40;;;;;;4229725;28;20048;-41
2020/12/01 08:37:14;;;;;;;0.75;0.75;;;14.80;87.30;;;;;;4230500;28;20056;-41
2020/12/01 08:39:48;;;;;;;0.00;0.00;;;14.80;87.30;;;;;;4230471;28;20417;-41
2020/12/01 08:42:20;;;;;;;0.00;0.00;;;14.70;87.60;;;;;;4230590;28;20513;-41
2020/12/01 08:44:48;;;;;;;2.53;0.90;;;14.70;87.60;;;;;;4230556;28;20136;-41
2020/12/01 08:47:09;;;;;;;0.00;0.00;;;14.70;87.70;;;;;;4230421;28;20105;-41
2020/12/01 08:49:42;;;;;;;1.38;0.77;;;14.70;87.20;;;;;;4230576;28;20421;-41
2020/12/01 08:52:04;;;;;;;0.00;0.00;;;14.80;86.80;;;;;;4230476;28;20066;-41
2020/12/01 08:54:28;;;;;;;4.40;2.45;;;14.90;86.50;;;;;;4230037;28;20047;-41
2020/12/01 08:57:17;;;;;;;0.00;0.00;;;14.90;86.50;;;;;;4230774;28;20110;-41
2020/12/01 08:59:43;;;;;;;0.00;0.00;;;14.80;86.50;;;;;;4230660;28;20134;-41
2020/12/01 09:02:07;;;;;;;0.00;0.00;;;14.90;86.70;;;;;;4230394;28;20425;-41
2020/12/01 09:04:29;;;;;;;1.15;1.10;;;15.00;86.30;;;;;;4230478;28;20464;-41
2020/12/01 09:06:52;;;;;;;0.00;0.00;;;15.10;85.50;;;;;;4230140;28;20070;-41
2020/12/01 09:09:24;;;;;;;0.00;0.00;;;15.20;85.00;;;;;;4230356;28;20406;-44
2020/12/01 09:12:13;;;;;;;0.10;0.10;;;15.20;84.80;;;;;;4230306;28;20079;-42
2020/12/01 09:14:45;;;;;;;0.00;0.00;;;15.20;84.80;;;;;;4230249;28;20136;-41
2020/12/01 09:17:18;;;;;;;0.15;0.15;;;15.10;85.00;;;;;;4230185;28;20055;-41
2020/12/01 09:19:58;;;;;;;0.10;0.10;;;15.00;85.20;;;;;;4229833;28;20047;-41
2020/12/01 09:22:25;;;;;;;1.08;1.08;;;14.90;85.80;;;;;;4230447;28;20058;-41
2020/12/01 09:24:47;;;;;;;0.68;0.43;;;14.90;86.40;;;;;;4230322;28;20760;-43
2020/12/01 09:27:11;;;;;;;0.10;0.10;;;14.70;86.80;;;;;;4230039;28;20052;-40
2020/12/01 09:29:33;;;;;;;0.00;0.00;;;14.70;87.30;;;;;;4229641;28;20084;-41
2020/12/01 09:31:57;;;;;;;0.30;0.30;;;14.80;87.20;;;;;;4229984;28;20059;-40
2020/12/01 09:34:18;;;;;;;0.00;0.00;;;14.90;86.80;;;;;;4230082;28;20047;-40
2020/12/01 09:36:39;;;;;;;0.38;0.38;;;14.90;86.70;;;;;;4229965;28;20136;-40
2020/12/01 09:39:00;;;;;;;0.00;0.00;;;14.90;86.50;;;;;;4229727;28;20056;-40
2020/12/01 09:41:24;;;;;;;0.08;0.08;;;14.90;86.70;;;;;;4229712;28;20130;-40
2020/12/01 09:43:51;;;;;;;0.00;0.00;;;14.90;86.80;;;;;;4229212;28;20051;-41
2020/12/01 09:46:13;;;;;;;0.75;0.75;;;14.80;86.90;;;;;;4229206;28;20123;-43
2020/12/01 09:48:36;;;;;;;0.65;0.65;;;14.90;86.90;;;;;;4226783;28;20052;-41
2020/12/01 09:50:58;;;;;;;0.00;0.00;;;15.00;86.20;;;;;;4223668;28;20043;-41
2020/12/01 09:53:37;;;;;;;0.08;0.08;;;15.20;85.60;;;;;;4227669;28;20043;-40
2020/12/01 09:56:10;;;;;;;2.08;1.38;;;15.20;85.20;;;;;;4222211;28;20051;-40
2020/12/01 10:09:23;;;;;;;0.00;0.00;;;14.90;86.00;;;;;;4228496;28;20043;-40
2020/12/01 10:36:04;;;;;;;0.25;0.25;;;14.30;88.70;;;;;;4229026;28;20516;-40
2020/12/01 10:38:25;;;;;;;0.47;0.47;;;14.30;88.80;;;;;;4228506;28;20075;-40
2020/12/01 10:40:49;;;;;;;0.00;0.00;;;14.20;88.80;;;;;;4228958;28;20054;-41
2020/12/01 10:43:10;;;;;;;2.08;0.90;;;14.20;89.00;;;;;;4229180;28;20051;-41
2020/12/01 10:45:31;;;;;;;0.00;0.00;;;14.10;89.00;;;;;;4229018;28;20134;-42
2020/12/01 10:48:09;;;;;;;0.10;0.10;;;14.10;89.10;;;;;;4213439;28;20271;-41
2020/12/01 10:50:31;;;;;;;0.00;0.00;;;14.00;89.20;;;;;;4228377;28;20048;-40
2020/12/01 10:52:52;;;;;;;0.00;0.00;;;14.00;89.30;;;;;;4219215;28;20059;-40
2020/12/01 10:55:14;;;;;;;;;;;14.00;89.40;;;;;;4229273;28;20056;-40
2020/12/01 10:57:36;;;;;;;0.35;0.35;;;13.90;89.50;;;;;;4213248;28;20727;-40
2020/12/01 10:59:57;;;;;;;0.00;0.00;;;13.90;89.70;;;;;;4213535;28;20059;-40
2020/12/01 11:02:22;;;;;;;0.00;0.00;;;13.90;89.80;;;;;;4228290;28;20044;-40
2020/12/01 11:04:43;;;;;;;0.00;0.00;;;13.90;89.80;;;;;;4226702;28;20448;-40
2020/12/01 11:07:05;;;;;;;0.00;0.00;;;13.90;89.80;;;;;;4218923;28;20047;-40
2020/12/01 11:09:26;;;;;;;0.00;0.00;;;13.90;89.80;;;;;;4224173;28;20485;-41
2020/12/01 11:11:46;;;;;;;0.00;0.00;;;13.80;89.60;;;;;;4230057;28;20051;-40
2020/12/01 11:14:08;;;;;;;0.00;0.00;;;13.80;89.60;;;;;;4232270;28;20140;-40
2020/12/01 11:16:29;;;;;;;3.60;0.63;;;13.80;89.70;;;;;;4232040;28;20142;-40
2020/12/01 11:18:50;;;;;;;10.50;1.08;;;13.90;89.80;;;;;;4231714;28;20097;-40
2020/12/01 11:21:12;;;;;;;2.83;1.65;;;14.00;89.10;;;;;;4232128;28;20059;-41
2020/12/01 11:23:35;;;;;;;0.45;0.30;;;14.10;88.30;;;;;;4229231;28;20451;-40
2020/12/01 11:25:56;;;;;;;1.95;1.85;;;14.20;87.90;;;;;;4231153;28;20047;-40
2020/12/01 11:28:17;;;;;;;0.00;0.00;;;14.20;87.50;;;;;;4221976;28;20113;-40
2020/12/01 11:30:38;;;;;;;0.00;0.00;;;14.30;87.30;;;;;;4231237;28;20143;-40
2020/12/01 11:32:59;;;;;;;0.00;0.00;;;14.30;86.80;;;;;;4231325;28;20057;-41
2020/12/01 11:35:22;;;;;;;0.05;0.05;;;14.30;86.80;;;;;;4231837;28;20860;-40
2020/12/01 11:37:44;;;;;;;0.10;0.10;;;14.30;86.90;;;;;;4231524;28;20050;-40
2020/12/01 11:40:06;;;;;;;0.00;0.00;;;14.30;87.00;;;;;;4231817;28;20105;-41
2020/12/01 11:42:27;;;;;;;0.00;0.00;;;14.30;87.00;;;;;;4231144;28;20048;-40
2020/12/01 11:44:48;;;;;;;0.00;0.00;;;14.30;87.20;;;;;;4231775;28;20064;-42
2020/12/01 11:47:14;;;;;;;0.10;0.10;;;14.20;87.40;;;;;;4231522;28;20433;-45
2020/12/01 11:49:35;;;;;;;3.55;2.00;;;14.20;87.60;;;;;;4231273;28;20075;-41
2020/12/01 11:51:58;;;;;;;0.00;0.00;;;14.20;87.70;;;;;;4231516;28;20112;-40
2020/12/01 11:54:21;;;;;;;0.00;0.00;;;14.10;87.70;;;;;;4231035;28;20747;-40
2020/12/01 11:56:42;;;;;;;0.15;0.15;;;14.10;87.90;;;;;;4231449;28;20482;-41
2020/12/01 11:59:04;;;;;;;0.52;0.52;;;14.00;87.90;;;;;;4231067;28;20079;-40
2020/12/01 12:01:24;;;;;;;0.00;0.00;;;14.00;88.00;;;;;;4231386;28;20047;-40
2020/12/01 12:03:45;;;;;;;0.00;0.00;;;13.90;88.20;;;;;;4231172;28;20048;-40
2020/12/01 12:06:06;;;;;;;;;;;13.90;88.30;;;;;;4232070;28;20051;-40
2020/12/01 12:08:30;;;;;;;0.00;0.00;;;13.90;88.40;;;;;;4230079;28;20022;-40
2020/12/01 12:10:52;;;;;;;0.00;0.00;;;13.90;88.60;;;;;;4225571;28;20058;-40
2020/12/01 12:13:13;;;;;;;0.00;0.00;;;13.80;88.70;;;;;;4231049;28;20774;-40
2020/12/01 12:15:34;;;;;;;0.00;0.00;;;13.80;88.80;;;;;;4230998;28;20059;-40
2020/12/01 12:17:55;;;;;;;0.00;0.00;;;13.80;89.00;;;;;;4230729;28;20067;-40
2020/12/01 12:20:16;;;;;;;0.00;0.00;;;13.70;88.90;;;;;;4197388;28;20053;-40
2020/12/01 12:22:37;;;;;;;0.35;0.35;;;13.70;88.90;;;;;;4220601;28;20063;-40
2020/12/01 12:24:58;;;;;;;0.00;0.00;;;13.70;88.90;;;;;;4230846;28;20066;-40
2020/12/01 12:27:19;;;;;;;0.00;0.00;;;13.60;89.00;;;;;;4230544;28;20052;-41
2020/12/01 12:29:40;;;;;;;0.20;0.20;;;13.60;89.00;;;;;;4229989;28;20119;-40
2020/12/01 12:32:04;;;;;;;0.00;0.00;;;13.60;89.20;;;;;;4198301;28;20633;-41
2020/12/01 12:34:25;;;;;;;0.00;0.00;;;13.50;89.10;;;;;;4225182;28;20136;-41
2020/12/01 12:36:46;;;;;;;0.03;0.03;;;13.50;90.00;;;;;;4230907;28;20066;-40
2020/12/01 12:39:09;;;;;;;0.10;0.10;;;13.50;89.30;;;;;;4230694;28;20439;-41
2020/12/01 12:41:30;;;;;;;0.20;0.20;;;13.50;89.40;;;;;;4230452;28;20467;-41
2020/12/01 12:43:52;;;;;;;0.00;0.00;;;13.50;89.40;;;;;;4230218;28;20159;-41
2020/12/01 12:46:15;;;;;;;0.15;0.15;;;13.50;89.40;;;;;;4230432;28;20062;-40
2020/12/01 12:48:36;;;;;;;1.75;1.65;;;13.60;89.50;;;;;;4230470;28;20460;-40
2020/12/01 12:51:01;;;;;;;0.00;0.00;;;13.80;88.30;;;;;;4230153;28;20093;-40
2020/12/01 12:53:22;;;;;;;3.65;0.90;;;14.00;87.00;;;;;;4230512;28;20104;-41
2020/12/01 12:55:43;;;;;;;0.10;0.10;;;14.10;86.50;;;;;;4230861;28;20051;-41
2020/12/01 12:58:06;;;;;;;0.00;0.00;;;14.10;86.10;;;;;;4230944;28;20097;-41
2020/12/01 13:00:28;;;;;;;0.10;0.10;;;14.20;86.00;;;;;;4229723;28;20043;-41
2020/12/01 13:02:50;;;;;;;0.00;0.00;;;14.10;85.80;;;;;;4228795;28;20051;-41
2020/12/01 13:05:10;;;;;;;0.00;0.00;;;14.20;85.90;;;;;;4230591;28;20047;-40
2020/12/01 13:07:46;;;;;;;0.00;0.00;;;14.30;85.60;;;;;;4229859;28;20051;-41
2020/12/01 13:10:07;;;;;;;;;;;14.30;85.20;;;;;;4230531;28;20055;-41
2020/12/01 13:12:28;;;;;;;0.00;0.00;;;14.40;84.70;;;;;;4229920;28;20317;-40